Myrtle, MS (38650)

7:34 AM CST on February 27, 2017 (GMT -0600)
PHQ | | Change Station

Elev 630 ft 34.83 °N, 89.17 °W | Updated 25 seconds ago

Partly Cloudy
Partly Cloudy
45.9 °F
Feels Like 44 °F
N
4.0
Wind Variable Wind from ESE

Today
High -- | Low -- °F
--% Chance of Precip.
Yesterday
High -- | Low -- °F
Precip. -- in
Pressure 30.14 in
Visibility 10.0 miles
Clouds Clear
Windchill 44 °F
Dew Point 45 °F
Humidity 98%
Rainfall 0.70 in
Snow Depth Not available.
6:27 AM 5:51 PM
New Moon, 1% visible
METAR KUOX 271315Z AUTO 12006KT 10SM CLR 06/05 A3014 RMK AO2
Pressure 30.14 in
Visibility 10.0 miles
Clouds Clear
Windchill 44 °F
Dew Point 45 °F
Humidity 98%
Rainfall 0.70 in
Snow Depth Not available.
6:27 AM 5:51 PM
New Moon, 1% visible
METAR KUOX 271315Z AUTO 12006KT 10SM CLR 06/05 A3014 RMK AO2

Get Your Daily Forecast Email!

Thanks for signing up!

Be on the lookout for a verification email in your inbox.

You'll start receiving the daily forecast at 8 AM.

×

10-Day Weather Forecast

Almanac

Astronomy

Feb. 27, 2017 Rise Set
Actual Time
Civil Twilight
Nautical Twilight
Astronomical Twilight
Moon
Length of Visible Light
Length of Day
Tomorrow will be .
, % of the Moon is Illuminated

Today's Extremes

State Highs State Lows

Community

WunderPhotos

Upload Photos

1,962,540 photos uploaded!

WunderBlog® & News

Nearby

Air Quality

  Air Quality AQ Index Pollutant
Not available.

Snow Depth

Station Depth Elevation

Earthquake Activity

City Distance Mag. Time & Date
Minimum magnitude displayed is 2.5.

Coastal Water Temperatures

Place Temperature

Stations

Nearby Weather Stations

Station Location Temp. Windchill Dew Point Humidity Wind Precip. Elev Updated Type
                   

Watches & Warnings

There are currently no watches in effect.